Leawood, Kansas
Current Conditions -  °F | °C
As of 4:22 AM on Saturday 22 Nov 2014 (Local Time) from KOJC Reporting Station
Haze Haze  
Wind Chill: 51°   Ceiling: 200
Heat Index: 51°   Visibility: 0.75mi
Dew Point: 51°   Wind: 9mph
Humidity: 100%   Direction: 200°SSW
Pressure: 29.99"   Gusts: NA
Location:  38.92°N, 94.64°W
Report Text: KOJC 221022Z AUTO 20008KT 3/4SM BR VV002 11/11 A2999 RMK AO2 T01060106
Loading
Personal Weather Stations






























Interactive Weather Map New forecast layout! Learn more

10-Day Weather Forecast

Advertisements
Track Severe Weather on mobile